sensor_id;sensor_type;location;lat;lon;timestamp;temperature;humidity
53599;DHT22;39485;45.702;11.364;2022-08-21T12:58:55;30.00;49.80
53599;DHT22;39485;45.702;11.364;2022-08-21T13:03:52;29.90;50.50
53599;DHT22;39485;45.702;11.364;2022-08-21T13:06:20;29.90;51.00
53599;DHT22;39485;45.702;11.364;2022-08-21T13:08:52;30.00;51.60
53599;DHT22;39485;45.702;11.364;2022-08-21T13:11:22;30.00;51.60
53599;DHT22;39485;45.702;11.364;2022-08-21T13:13:50;30.00;51.90
53599;DHT22;39485;45.702;11.364;2022-08-21T13:16:24;30.00;51.50
53599;DHT22;39485;45.702;11.364;2022-08-21T13:18:57;30.00;51.50
53599;DHT22;39485;45.702;11.364;2022-08-21T13:21:31;29.90;51.30
53599;DHT22;39485;45.702;11.364;2022-08-21T13:26:35;29.90;51.00
53599;DHT22;39485;45.702;11.364;2022-08-21T13:29:10;29.90;50.70
53599;DHT22;39485;45.702;11.364;2022-08-21T13:31:37;29.80;50.50
53599;DHT22;39485;45.702;11.364;2022-08-21T13:34:05;29.80;50.90
53599;DHT22;39485;45.702;11.364;2022-08-21T13:36:35;29.80;51.10
53599;DHT22;39485;45.702;11.364;2022-08-21T13:39:07;29.80;51.00
53599;DHT22;39485;45.702;11.364;2022-08-21T13:41:40;29.80;50.60
53599;DHT22;39485;45.702;11.364;2022-08-21T13:46:59;29.70;50.50
53599;DHT22;39485;45.702;11.364;2022-08-21T13:49:38;29.70;50.50
53599;DHT22;39485;45.702;11.364;2022-08-21T13:52:13;29.70;50.60
53599;DHT22;39485;45.702;11.364;2022-08-21T13:54:40;29.70;50.50
53599;DHT22;39485;45.702;11.364;2022-08-21T13:57:18;29.70;50.60
53599;DHT22;39485;45.702;11.364;2022-08-21T15:05:08;29.40;51.00
53599;DHT22;39485;45.702;11.364;2022-08-21T15:07:35;29.40;51.30
53599;DHT22;39485;45.702;11.364;2022-08-21T15:10:00;29.40;51.60
53599;DHT22;39485;45.702;11.364;2022-08-21T15:12:27;29.40;51.20
53599;DHT22;39485;45.702;11.364;2022-08-21T15:14:53;29.30;51.20
53599;DHT22;39485;45.702;11.364;2022-08-21T15:17:19;29.30;51.60
53599;DHT22;39485;45.702;11.364;2022-08-21T15:19:45;29.30;51.60
53599;DHT22;39485;45.702;11.364;2022-08-21T15:22:11;29.30;51.80
53599;DHT22;39485;45.702;11.364;2022-08-21T15:24:37;29.30;51.40
53599;DHT22;39485;45.702;11.364;2022-08-21T15:27:04;29.30;51.50
53599;DHT22;39485;45.702;11.364;2022-08-21T15:29:32;29.30;51.60
53599;DHT22;39485;45.702;11.364;2022-08-21T15:32:16;29.30;51.60
53599;DHT22;39485;45.702;11.364;2022-08-21T15:34:42;29.30;51.90
53599;DHT22;39485;45.702;11.364;2022-08-21T15:37:08;29.30;51.50
53599;DHT22;39485;45.702;11.364;2022-08-21T15:39:34;29.30;51.80
53599;DHT22;39485;45.702;11.364;2022-08-21T15:42:01;29.30;51.80
53599;DHT22;39485;45.702;11.364;2022-08-21T15:44:28;29.30;52.10
53599;DHT22;39485;45.702;11.364;2022-08-21T15:46:55;29.30;52.30
53599;DHT22;39485;45.702;11.364;2022-08-21T15:49:21;29.30;52.70
53599;DHT22;39485;45.702;11.364;2022-08-21T15:51:47;29.30;52.60
53599;DHT22;39485;45.702;11.364;2022-08-21T15:54:12;29.30;52.50
53599;DHT22;39485;45.702;11.364;2022-08-21T15:56:39;29.30;52.60
53599;DHT22;39485;45.702;11.364;2022-08-21T15:59:13;29.20;52.40
53599;DHT22;39485;45.702;11.364;2022-08-21T16:01:40;29.20;52.60
53599;DHT22;39485;45.702;11.364;2022-08-21T16:04:06;29.20;52.90
53599;DHT22;39485;45.702;11.364;2022-08-21T16:06:33;29.20;52.50
53599;DHT22;39485;45.702;11.364;2022-08-21T16:08:59;29.20;52.50
53599;DHT22;39485;45.702;11.364;2022-08-21T16:11:25;29.20;52.40
53599;DHT22;39485;45.702;11.364;2022-08-21T16:13:51;29.20;52.70
53599;DHT22;39485;45.702;11.364;2022-08-21T16:16:22;29.10;52.90
53599;DHT22;39485;45.702;11.364;2022-08-21T16:18:49;29.20;53.20
53599;DHT22;39485;45.702;11.364;2022-08-21T16:21:16;29.20;53.00
53599;DHT22;39485;45.702;11.364;2022-08-21T16:23:42;29.20;53.00
53599;DHT22;39485;45.702;11.364;2022-08-21T16:26:09;29.10;53.20
53599;DHT22;39485;45.702;11.364;2022-08-21T16:28:38;29.10;52.70
53599;DHT22;39485;45.702;11.364;2022-08-21T16:31:06;29.10;52.80
53599;DHT22;39485;45.702;11.364;2022-08-21T16:36:03;29.10;53.30
53599;DHT22;39485;45.702;11.364;2022-08-21T16:38:29;29.10;53.20
53599;DHT22;39485;45.702;11.364;2022-08-21T16:40:58;29.10;53.30
53599;DHT22;39485;45.702;11.364;2022-08-21T16:43:26;29.10;53.60
53599;DHT22;39485;45.702;11.364;2022-08-21T16:45:54;29.10;53.90
53599;DHT22;39485;45.702;11.364;2022-08-21T16:48:21;29.00;53.80
53599;DHT22;39485;45.702;11.364;2022-08-21T16:50:47;29.00;53.60
53599;DHT22;39485;45.702;11.364;2022-08-21T16:53:13;29.00;53.70
53599;DHT22;39485;45.702;11.364;2022-08-21T16:55:39;29.00;53.90
53599;DHT22;39485;45.702;11.364;2022-08-21T16:58:09;28.90;53.70
53599;DHT22;39485;45.702;11.364;2022-08-21T17:00:37;28.90;53.90
53599;DHT22;39485;45.702;11.364;2022-08-21T17:03:03;28.90;54.00
53599;DHT22;39485;45.702;11.364;2022-08-21T17:05:28;28.90;54.00
53599;DHT22;39485;45.702;11.364;2022-08-21T17:07:54;28.90;53.80
53599;DHT22;39485;45.702;11.364;2022-08-21T17:10:20;28.80;53.90
53599;DHT22;39485;45.702;11.364;2022-08-21T17:12:50;28.70;54.20
53599;DHT22;39485;45.702;11.364;2022-08-21T17:15:24;28.70;54.50
53599;DHT22;39485;45.702;11.364;2022-08-21T17:17:51;28.60;54.70
53599;DHT22;39485;45.702;11.364;2022-08-21T17:20:17;28.60;55.40
53599;DHT22;39485;45.702;11.364;2022-08-21T17:22:44;28.60;57.30
53599;DHT22;39485;45.702;11.364;2022-08-21T17:25:10;28.50;58.30
53599;DHT22;39485;45.702;11.364;2022-08-21T17:27:36;28.50;59.80
53599;DHT22;39485;45.702;11.364;2022-08-21T17:30:03;28.30;59.90
53599;DHT22;39485;45.702;11.364;2022-08-21T17:32:30;28.20;60.30
53599;DHT22;39485;45.702;11.364;2022-08-21T17:34:56;28.00;60.30
53599;DHT22;39485;45.702;11.364;2022-08-21T17:37:21;27.90;60.60
53599;DHT22;39485;45.702;11.364;2022-08-21T17:39:48;27.70;60.80
53599;DHT22;39485;45.702;11.364;2022-08-21T17:42:14;27.60;61.30
53599;DHT22;39485;45.702;11.364;2022-08-21T17:44:42;27.40;61.50
53599;DHT22;39485;45.702;11.364;2022-08-21T17:47:08;27.20;61.70
53599;DHT22;39485;45.702;11.364;2022-08-21T17:49:34;27.10;62.30
53599;DHT22;39485;45.702;11.364;2022-08-21T17:52:00;27.00;63.20
53599;DHT22;39485;45.702;11.364;2022-08-21T17:54:26;26.90;63.70
53599;DHT22;39485;45.702;11.364;2022-08-21T17:56:53;26.80;64.30
53599;DHT22;39485;45.702;11.364;2022-08-21T17:59:20;26.70;64.80
53599;DHT22;39485;45.702;11.364;2022-08-21T18:01:46;26.50;65.30
53599;DHT22;39485;45.702;11.364;2022-08-21T18:04:13;26.30;65.80
53599;DHT22;39485;45.702;11.364;2022-08-21T18:06:39;26.20;66.40
53599;DHT22;39485;45.702;11.364;2022-08-21T18:09:06;26.10;66.90
53599;DHT22;39485;45.702;11.364;2022-08-21T18:11:33;25.90;67.50
53599;DHT22;39485;45.702;11.364;2022-08-21T18:14:00;25.90;68.00
53599;DHT22;39485;45.702;11.364;2022-08-21T18:16:31;25.80;68.30
53599;DHT22;39485;45.702;11.364;2022-08-21T18:18:59;25.70;68.50
53599;DHT22;39485;45.702;11.364;2022-08-21T18:21:27;25.60;68.80
53599;DHT22;39485;45.702;11.364;2022-08-21T18:23:53;25.50;69.00
53599;DHT22;39485;45.702;11.364;2022-08-21T18:26:28;25.40;69.30
53599;DHT22;39485;45.702;11.364;2022-08-21T18:28:56;25.30;69.40
53599;DHT22;39485;45.702;11.364;2022-08-21T18:31:28;25.20;69.70
53599;DHT22;39485;45.702;11.364;2022-08-21T18:33:55;25.10;70.10
53599;DHT22;39485;45.702;11.364;2022-08-21T18:36:21;25.10;70.50
53599;DHT22;39485;45.702;11.364;2022-08-21T18:38:47;24.90;70.60
53599;DHT22;39485;45.702;11.364;2022-08-21T18:41:19;24.90;70.70
53599;DHT22;39485;45.702;11.364;2022-08-21T18:43:45;24.80;71.00
53599;DHT22;39485;45.702;11.364;2022-08-21T18:46:11;24.80;71.30
53599;DHT22;39485;45.702;11.364;2022-08-21T18:48:36;24.70;71.50
53599;DHT22;39485;45.702;11.364;2022-08-21T18:51:02;24.60;71.70
53599;DHT22;39485;45.702;11.364;2022-08-21T18:53:28;24.50;72.00
53599;DHT22;39485;45.702;11.364;2022-08-21T18:55:54;24.50;72.20
53599;DHT22;39485;45.702;11.364;2022-08-21T18:58:19;24.40;72.50
53599;DHT22;39485;45.702;11.364;2022-08-21T19:00:48;24.40;72.90
53599;DHT22;39485;45.702;11.364;2022-08-21T19:03:17;24.30;73.50
53599;DHT22;39485;45.702;11.364;2022-08-21T19:05:44;24.30;73.80
53599;DHT22;39485;45.702;11.364;2022-08-21T19:08:12;24.20;74.10
53599;DHT22;39485;45.702;11.364;2022-08-21T19:10:39;24.20;74.30
53599;DHT22;39485;45.702;11.364;2022-08-21T19:13:06;24.10;74.50
53599;DHT22;39485;45.702;11.364;2022-08-21T19:15:33;24.10;75.00
53599;DHT22;39485;45.702;11.364;2022-08-21T19:18:02;24.10;75.50
53599;DHT22;39485;45.702;11.364;2022-08-21T19:20:32;24.00;75.80
53599;DHT22;39485;45.702;11.364;2022-08-21T19:23:04;24.00;76.10
53599;DHT22;39485;45.702;11.364;2022-08-21T19:25:31;23.90;76.30
53599;DHT22;39485;45.702;11.364;2022-08-21T19:27:57;23.90;76.50
53599;DHT22;39485;45.702;11.364;2022-08-21T19:30:24;23.80;76.70
53599;DHT22;39485;45.702;11.364;2022-08-21T19:32:50;23.80;77.00
53599;DHT22;39485;45.702;11.364;2022-08-21T19:35:16;23.80;77.20
53599;DHT22;39485;45.702;11.364;2022-08-21T19:37:43;23.70;77.30
53599;DHT22;39485;45.702;11.364;2022-08-21T19:40:11;23.60;77.80
53599;DHT22;39485;45.702;11.364;2022-08-21T19:42:37;23.60;78.70
53599;DHT22;39485;45.702;11.364;2022-08-21T19:45:04;23.50;79.00
53599;DHT22;39485;45.702;11.364;2022-08-21T19:47:30;23.50;79.50
53599;DHT22;39485;45.702;11.364;2022-08-21T19:49:58;23.40;79.90
53599;DHT22;39485;45.702;11.364;2022-08-21T19:52:25;23.30;80.50
53599;DHT22;39485;45.702;11.364;2022-08-21T19:54:51;23.30;81.00
53599;DHT22;39485;45.702;11.364;2022-08-21T19:57:17;23.20;81.70
53599;DHT22;39485;45.702;11.364;2022-08-21T19:59:44;23.20;82.10
53599;DHT22;39485;45.702;11.364;2022-08-21T20:02:14;23.20;82.70
53599;DHT22;39485;45.702;11.364;2022-08-21T20:04:42;23.10;83.10
53599;DHT22;39485;45.702;11.364;2022-08-21T20:07:08;23.10;83.30
53599;DHT22;39485;45.702;11.364;2022-08-21T20:09:34;23.10;83.90
53599;DHT22;39485;45.702;11.364;2022-08-21T20:12:04;23.00;83.70
53599;DHT22;39485;45.702;11.364;2022-08-21T20:14:31;23.00;83.80
53599;DHT22;39485;45.702;11.364;2022-08-21T20:17:02;23.00;84.70
53599;DHT22;39485;45.702;11.364;2022-08-21T20:19:28;22.90;84.40
53599;DHT22;39485;45.702;11.364;2022-08-21T20:21:54;22.90;84.70
53599;DHT22;39485;45.702;11.364;2022-08-21T20:24:22;22.90;84.90
53599;DHT22;39485;45.702;11.364;2022-08-21T20:26:48;22.90;85.00
53599;DHT22;39485;45.702;11.364;2022-08-21T20:29:15;22.80;85.00
53599;DHT22;39485;45.702;11.364;2022-08-21T20:31:41;22.80;85.30
53599;DHT22;39485;45.702;11.364;2022-08-21T20:34:07;22.70;85.60
53599;DHT22;39485;45.702;11.364;2022-08-21T20:36:32;22.80;85.90
53599;DHT22;39485;45.702;11.364;2022-08-21T20:38:58;22.70;86.10
53599;DHT22;39485;45.702;11.364;2022-08-21T20:41:25;22.70;86.20
53599;DHT22;39485;45.702;11.364;2022-08-21T20:43:51;22.70;86.30
53599;DHT22;39485;45.702;11.364;2022-08-21T20:46:22;22.70;86.40
53599;DHT22;39485;45.702;11.364;2022-08-21T20:48:48;22.70;86.80
53599;DHT22;39485;45.702;11.364;2022-08-21T20:51:30;22.70;87.10
53599;DHT22;39485;45.702;11.364;2022-08-21T20:54:25;22.70;87.70
53599;DHT22;39485;45.702;11.364;2022-08-21T21:05:28;22.60;90.00
53599;DHT22;39485;45.702;11.364;2022-08-21T21:08:15;22.60;90.30
53599;DHT22;39485;45.702;11.364;2022-08-21T21:10:58;22.50;90.60
53599;DHT22;39485;45.702;11.364;2022-08-21T21:16:16;22.50;91.20
53599;DHT22;39485;45.702;11.364;2022-08-21T21:18:51;22.50;91.50
53599;DHT22;39485;45.702;11.364;2022-08-21T21:21:34;22.50;91.70
53599;DHT22;39485;45.702;11.364;2022-08-21T21:24:30;22.50;92.10
53599;DHT22;39485;45.702;11.364;2022-08-21T21:27:06;22.50;92.40
53599;DHT22;39485;45.702;11.364;2022-08-21T21:29:41;22.50;92.90
53599;DHT22;39485;45.702;11.364;2022-08-21T21:32:08;22.40;93.10
53599;DHT22;39485;45.702;11.364;2022-08-21T21:34:40;22.40;93.30
53599;DHT22;39485;45.702;11.364;2022-08-21T21:45:22;22.30;94.90
53599;DHT22;39485;45.702;11.364;2022-08-21T21:48:05;22.20;95.60
53599;DHT22;39485;45.702;11.364;2022-08-21T21:50:53;22.20;96.60
53599;DHT22;39485;45.702;11.364;2022-08-21T22:01:39;22.10;99.90
53599;DHT22;39485;45.702;11.364;2022-08-21T22:04:16;22.10;99.90
53599;DHT22;39485;45.702;11.364;2022-08-21T22:06:57;22.10;99.90
53599;DHT22;39485;45.702;11.364;2022-08-21T22:09:39;22.10;99.90
53599;DHT22;39485;45.702;11.364;2022-08-21T22:12:27;22.10;99.90
53599;DHT22;39485;45.702;11.364;2022-08-21T22:14:55;22.10;99.90
53599;DHT22;39485;45.702;11.364;2022-08-21T22:17:40;22.10;99.90
53599;DHT22;39485;45.702;11.364;2022-08-21T22:22:56;22.10;99.90
53599;DHT22;39485;45.702;11.364;2022-08-21T22:25:26;22.10;99.90
53599;DHT22;39485;45.702;11.364;2022-08-21T22:28:04;22.10;99.90
53599;DHT22;39485;45.702;11.364;2022-08-21T22:30:46;22.10;99.90
53599;DHT22;39485;45.702;11.364;2022-08-21T22:33:21;22.10;99.90
53599;DHT22;39485;45.702;11.364;2022-08-21T22:35:48;22.10;99.90
53599;DHT22;39485;45.702;11.364;2022-08-21T22:38:36;22.10;99.90
53599;DHT22;39485;45.702;11.364;2022-08-21T22:41:18;22.10;99.90
53599;DHT22;39485;45.702;11.364;2022-08-21T22:43:58;22.10;99.90
53599;DHT22;39485;45.702;11.364;2022-08-21T22:49:09;22.10;99.90
53599;DHT22;39485;45.702;11.364;2022-08-21T22:51:42;22.00;99.90
53599;DHT22;39485;45.702;11.364;2022-08-21T22:54:12;22.10;99.90
53599;DHT22;39485;45.702;11.364;2022-08-21T22:56:44;22.10;99.90
53599;DHT22;39485;45.702;11.364;2022-08-21T22:59:51;22.10;99.90
53599;DHT22;39485;45.702;11.364;2022-08-21T23:02:21;22.10;99.90
53599;DHT22;39485;45.702;11.364;2022-08-21T23:04:49;22.10;99.90
53599;DHT22;39485;45.702;11.364;2022-08-21T23:07:41;22.10;99.90
53599;DHT22;39485;45.702;11.364;2022-08-21T23:10:27;22.10;99.90
53599;DHT22;39485;45.702;11.364;2022-08-21T23:13:06;22.00;99.90
53599;DHT22;39485;45.702;11.364;2022-08-21T23:15:58;22.00;99.90
53599;DHT22;39485;45.702;11.364;2022-08-21T23:24:27;21.90;99.90
53599;DHT22;39485;45.702;11.364;2022-08-21T23:37:27;21.90;99.90
53599;DHT22;39485;45.702;11.364;2022-08-21T23:51:11;21.70;99.90
53599;DHT22;39485;45.702;11.364;2022-08-21T23:59:00;21.60;99.90
